sensor_id;sensor_type;location;lat;lon;timestamp;temperature;humidity
50969;DHT22;36982;51.474;7.228;2024-01-30T00:01:54;8.60;82.00
50969;DHT22;36982;51.474;7.228;2024-01-30T00:04:20;8.60;82.90
50969;DHT22;36982;51.474;7.228;2024-01-30T00:06:46;8.60;81.20
50969;DHT22;36982;51.474;7.228;2024-01-30T00:09:11;8.60;80.80
50969;DHT22;36982;51.474;7.228;2024-01-30T00:11:37;8.60;81.70
50969;DHT22;36982;51.474;7.228;2024-01-30T00:14:04;8.50;81.00
50969;DHT22;36982;51.474;7.228;2024-01-30T00:16:30;8.40;81.70
50969;DHT22;36982;51.474;7.228;2024-01-30T00:18:55;8.40;86.10
50969;DHT22;36982;51.474;7.228;2024-01-30T00:21:21;8.40;82.60
50969;DHT22;36982;51.474;7.228;2024-01-30T00:23:48;8.40;84.50
50969;DHT22;36982;51.474;7.228;2024-01-30T00:26:14;8.50;80.50
50969;DHT22;36982;51.474;7.228;2024-01-30T00:28:43;8.40;83.70
50969;DHT22;36982;51.474;7.228;2024-01-30T00:31:09;8.50;85.60
50969;DHT22;36982;51.474;7.228;2024-01-30T00:33:38;8.30;85.30
50969;DHT22;36982;51.474;7.228;2024-01-30T00:36:05;8.40;86.90
50969;DHT22;36982;51.474;7.228;2024-01-30T00:38:31;8.40;84.70
50969;DHT22;36982;51.474;7.228;2024-01-30T00:40:57;8.30;83.30
50969;DHT22;36982;51.474;7.228;2024-01-30T00:43:23;8.20;84.70
50969;DHT22;36982;51.474;7.228;2024-01-30T00:45:50;8.20;88.90
50969;DHT22;36982;51.474;7.228;2024-01-30T00:48:17;8.20;88.50
50969;DHT22;36982;51.474;7.228;2024-01-30T00:50:43;8.20;88.00
50969;DHT22;36982;51.474;7.228;2024-01-30T00:53:08;8.30;87.70
50969;DHT22;36982;51.474;7.228;2024-01-30T00:55:35;8.00;88.90
50969;DHT22;36982;51.474;7.228;2024-01-30T00:58:01;8.10;89.00
50969;DHT22;36982;51.474;7.228;2024-01-30T01:00:26;8.20;88.90
50969;DHT22;36982;51.474;7.228;2024-01-30T01:02:55;8.20;86.70
50969;DHT22;36982;51.474;7.228;2024-01-30T01:05:21;8.10;87.00
50969;DHT22;36982;51.474;7.228;2024-01-30T01:07:46;8.20;87.20
50969;DHT22;36982;51.474;7.228;2024-01-30T01:10:18;8.10;85.20
50969;DHT22;36982;51.474;7.228;2024-01-30T01:12:45;8.20;86.00
50969;DHT22;36982;51.474;7.228;2024-01-30T01:15:10;8.30;83.20
50969;DHT22;36982;51.474;7.228;2024-01-30T01:17:37;8.30;80.90
50969;DHT22;36982;51.474;7.228;2024-01-30T01:20:04;8.20;84.10
50969;DHT22;36982;51.474;7.228;2024-01-30T01:22:30;8.20;84.90
50969;DHT22;36982;51.474;7.228;2024-01-30T01:24:56;8.20;83.30
50969;DHT22;36982;51.474;7.228;2024-01-30T01:27:22;8.10;85.30
50969;DHT22;36982;51.474;7.228;2024-01-30T01:29:47;8.10;87.20
50969;DHT22;36982;51.474;7.228;2024-01-30T01:32:13;8.20;85.60
50969;DHT22;36982;51.474;7.228;2024-01-30T01:34:39;8.10;86.50
50969;DHT22;36982;51.474;7.228;2024-01-30T01:37:04;8.10;85.80
50969;DHT22;36982;51.474;7.228;2024-01-30T01:39:30;8.10;84.10
50969;DHT22;36982;51.474;7.228;2024-01-30T01:41:55;8.10;85.00
50969;DHT22;36982;51.474;7.228;2024-01-30T01:44:21;8.00;88.40
50969;DHT22;36982;51.474;7.228;2024-01-30T01:46:47;7.90;91.10
50969;DHT22;36982;51.474;7.228;2024-01-30T01:49:14;8.00;89.60
50969;DHT22;36982;51.474;7.228;2024-01-30T01:51:40;8.00;86.60
50969;DHT22;36982;51.474;7.228;2024-01-30T01:54:06;7.90;89.90
50969;DHT22;36982;51.474;7.228;2024-01-30T01:56:33;8.10;88.60
50969;DHT22;36982;51.474;7.228;2024-01-30T01:59:04;8.00;87.70
50969;DHT22;36982;51.474;7.228;2024-01-30T02:01:32;7.90;90.40
50969;DHT22;36982;51.474;7.228;2024-01-30T02:03:58;8.00;89.90
50969;DHT22;36982;51.474;7.228;2024-01-30T02:06:24;8.00;90.70
50969;DHT22;36982;51.474;7.228;2024-01-30T02:08:50;8.10;88.80
50969;DHT22;36982;51.474;7.228;2024-01-30T02:11:15;8.10;87.00
50969;DHT22;36982;51.474;7.228;2024-01-30T02:13:42;8.10;83.90
50969;DHT22;36982;51.474;7.228;2024-01-30T02:16:08;8.00;87.60
50969;DHT22;36982;51.474;7.228;2024-01-30T02:18:33;8.10;88.00
50969;DHT22;36982;51.474;7.228;2024-01-30T02:21:03;8.10;86.10
50969;DHT22;36982;51.474;7.228;2024-01-30T02:23:47;8.00;86.30
50969;DHT22;36982;51.474;7.228;2024-01-30T02:26:13;8.00;88.30
50969;DHT22;36982;51.474;7.228;2024-01-30T02:28:39;7.90;89.90
50969;DHT22;36982;51.474;7.228;2024-01-30T02:31:05;7.90;90.70
50969;DHT22;36982;51.474;7.228;2024-01-30T02:33:31;8.00;88.20
50969;DHT22;36982;51.474;7.228;2024-01-30T02:35:56;7.90;90.70
50969;DHT22;36982;51.474;7.228;2024-01-30T02:38:22;8.00;88.80
50969;DHT22;36982;51.474;7.228;2024-01-30T02:40:49;7.90;91.30
50969;DHT22;36982;51.474;7.228;2024-01-30T02:43:15;7.90;90.00
50969;DHT22;36982;51.474;7.228;2024-01-30T02:45:41;7.80;90.50
50969;DHT22;36982;51.474;7.228;2024-01-30T02:48:07;7.80;90.20
50969;DHT22;36982;51.474;7.228;2024-01-30T02:50:32;7.70;92.10
50969;DHT22;36982;51.474;7.228;2024-01-30T02:52:58;7.90;91.10
50969;DHT22;36982;51.474;7.228;2024-01-30T02:55:24;8.00;90.20
50969;DHT22;36982;51.474;7.228;2024-01-30T02:57:49;7.90;90.60
50969;DHT22;36982;51.474;7.228;2024-01-30T03:00:15;8.00;90.40
50969;DHT22;36982;51.474;7.228;2024-01-30T03:02:41;7.80;92.00
50969;DHT22;36982;51.474;7.228;2024-01-30T03:05:07;7.90;92.00
50969;DHT22;36982;51.474;7.228;2024-01-30T03:07:33;7.80;91.30
50969;DHT22;36982;51.474;7.228;2024-01-30T03:09:59;7.70;92.60
50969;DHT22;36982;51.474;7.228;2024-01-30T03:12:25;8.10;91.40
50969;DHT22;36982;51.474;7.228;2024-01-30T03:14:50;7.90;89.90
50969;DHT22;36982;51.474;7.228;2024-01-30T03:17:16;7.90;91.60
50969;DHT22;36982;51.474;7.228;2024-01-30T03:19:42;7.80;91.80
50969;DHT22;36982;51.474;7.228;2024-01-30T03:22:08;7.90;92.60
50969;DHT22;36982;51.474;7.228;2024-01-30T03:24:33;7.90;91.40
50969;DHT22;36982;51.474;7.228;2024-01-30T03:26:59;7.80;91.30
50969;DHT22;36982;51.474;7.228;2024-01-30T03:29:25;7.80;92.90
50969;DHT22;36982;51.474;7.228;2024-01-30T03:31:50;7.80;92.60
50969;DHT22;36982;51.474;7.228;2024-01-30T03:34:16;7.90;91.30
50969;DHT22;36982;51.474;7.228;2024-01-30T03:36:41;7.90;92.30
50969;DHT22;36982;51.474;7.228;2024-01-30T03:39:07;8.10;90.80
50969;DHT22;36982;51.474;7.228;2024-01-30T03:41:33;8.00;90.60
50969;DHT22;36982;51.474;7.228;2024-01-30T03:43:59;7.90;91.60
50969;DHT22;36982;51.474;7.228;2024-01-30T03:46:24;7.80;92.00
50969;DHT22;36982;51.474;7.228;2024-01-30T03:48:50;8.00;91.40
50969;DHT22;36982;51.474;7.228;2024-01-30T03:51:16;7.90;91.20
50969;DHT22;36982;51.474;7.228;2024-01-30T03:53:42;8.00;90.90
50969;DHT22;36982;51.474;7.228;2024-01-30T03:56:08;7.90;89.70
50969;DHT22;36982;51.474;7.228;2024-01-30T03:58:34;7.90;90.60
50969;DHT22;36982;51.474;7.228;2024-01-30T04:01:00;8.00;91.30
50969;DHT22;36982;51.474;7.228;2024-01-30T04:03:25;8.20;90.70
50969;DHT22;36982;51.474;7.228;2024-01-30T04:05:52;8.10;88.70
50969;DHT22;36982;51.474;7.228;2024-01-30T04:08:18;8.10;88.50
50969;DHT22;36982;51.474;7.228;2024-01-30T04:10:44;8.10;89.00
50969;DHT22;36982;51.474;7.228;2024-01-30T04:13:09;8.00;88.80
50969;DHT22;36982;51.474;7.228;2024-01-30T04:15:35;8.00;90.70
50969;DHT22;36982;51.474;7.228;2024-01-30T04:18:01;8.00;90.00
50969;DHT22;36982;51.474;7.228;2024-01-30T04:20:27;8.00;90.10
50969;DHT22;36982;51.474;7.228;2024-01-30T04:22:52;8.00;88.50
50969;DHT22;36982;51.474;7.228;2024-01-30T04:25:18;8.00;89.30
50969;DHT22;36982;51.474;7.228;2024-01-30T04:27:44;8.00;88.70
50969;DHT22;36982;51.474;7.228;2024-01-30T04:30:10;7.90;90.00
50969;DHT22;36982;51.474;7.228;2024-01-30T04:32:36;7.80;91.60
50969;DHT22;36982;51.474;7.228;2024-01-30T04:35:02;7.80;91.60
50969;DHT22;36982;51.474;7.228;2024-01-30T04:37:27;7.90;90.90
50969;DHT22;36982;51.474;7.228;2024-01-30T04:39:53;7.90;89.80
50969;DHT22;36982;51.474;7.228;2024-01-30T04:42:19;7.80;91.40
50969;DHT22;36982;51.474;7.228;2024-01-30T04:44:45;7.80;91.50
50969;DHT22;36982;51.474;7.228;2024-01-30T04:47:10;7.80;92.50
50969;DHT22;36982;51.474;7.228;2024-01-30T04:49:38;8.00;92.10
50969;DHT22;36982;51.474;7.228;2024-01-30T04:52:05;8.00;91.40
50969;DHT22;36982;51.474;7.228;2024-01-30T04:54:30;8.00;90.90
50969;DHT22;36982;51.474;7.228;2024-01-30T04:56:56;7.80;92.10
50969;DHT22;36982;51.474;7.228;2024-01-30T04:59:21;7.80;92.00
50969;DHT22;36982;51.474;7.228;2024-01-30T05:01:47;7.80;92.90
50969;DHT22;36982;51.474;7.228;2024-01-30T05:04:13;7.80;92.80
50969;DHT22;36982;51.474;7.228;2024-01-30T05:06:38;7.80;93.40
50969;DHT22;36982;51.474;7.228;2024-01-30T05:09:04;7.80;93.30
50969;DHT22;36982;51.474;7.228;2024-01-30T05:11:30;8.00;92.80
50969;DHT22;36982;51.474;7.228;2024-01-30T05:13:56;8.00;89.40
50969;DHT22;36982;51.474;7.228;2024-01-30T05:16:21;7.90;90.80
50969;DHT22;36982;51.474;7.228;2024-01-30T05:18:47;7.90;92.90
50969;DHT22;36982;51.474;7.228;2024-01-30T05:21:12;7.90;92.00
50969;DHT22;36982;51.474;7.228;2024-01-30T05:23:38;7.90;91.90
50969;DHT22;36982;51.474;7.228;2024-01-30T05:26:04;8.00;90.90
50969;DHT22;36982;51.474;7.228;2024-01-30T05:28:30;7.90;91.10
50969;DHT22;36982;51.474;7.228;2024-01-30T05:30:56;8.00;89.70
50969;DHT22;36982;51.474;7.228;2024-01-30T05:33:21;8.00;91.50
50969;DHT22;36982;51.474;7.228;2024-01-30T05:35:47;8.10;90.50
50969;DHT22;36982;51.474;7.228;2024-01-30T05:38:15;8.00;90.40
50969;DHT22;36982;51.474;7.228;2024-01-30T05:40:41;7.90;91.10
50969;DHT22;36982;51.474;7.228;2024-01-30T05:43:07;7.90;91.40
50969;DHT22;36982;51.474;7.228;2024-01-30T05:45:33;7.80;92.00
50969;DHT22;36982;51.474;7.228;2024-01-30T05:48:00;7.90;92.20
50969;DHT22;36982;51.474;7.228;2024-01-30T05:50:26;7.90;92.20
50969;DHT22;36982;51.474;7.228;2024-01-30T05:52:52;7.70;91.00
50969;DHT22;36982;51.474;7.228;2024-01-30T05:55:18;7.80;92.30
50969;DHT22;36982;51.474;7.228;2024-01-30T05:57:44;7.90;93.00
50969;DHT22;36982;51.474;7.228;2024-01-30T06:00:10;8.00;91.80
50969;DHT22;36982;51.474;7.228;2024-01-30T06:02:36;7.90;90.20
50969;DHT22;36982;51.474;7.228;2024-01-30T06:05:01;7.80;92.80
50969;DHT22;36982;51.474;7.228;2024-01-30T06:07:28;7.80;92.30
50969;DHT22;36982;51.474;7.228;2024-01-30T06:09:53;7.90;92.40
50969;DHT22;36982;51.474;7.228;2024-01-30T06:12:19;8.00;90.70
50969;DHT22;36982;51.474;7.228;2024-01-30T06:14:45;7.90;90.90
50969;DHT22;36982;51.474;7.228;2024-01-30T06:17:10;7.80;92.30
50969;DHT22;36982;51.474;7.228;2024-01-30T06:19:38;7.90;92.30
50969;DHT22;36982;51.474;7.228;2024-01-30T06:22:04;7.80;93.60
50969;DHT22;36982;51.474;7.228;2024-01-30T06:24:30;7.90;92.10
50969;DHT22;36982;51.474;7.228;2024-01-30T06:26:55;7.70;92.20
50969;DHT22;36982;51.474;7.228;2024-01-30T06:29:21;7.60;94.20
50969;DHT22;36982;51.474;7.228;2024-01-30T06:31:47;7.70;95.70
50969;DHT22;36982;51.474;7.228;2024-01-30T06:34:13;7.70;93.70
50969;DHT22;36982;51.474;7.228;2024-01-30T06:36:38;7.80;95.10
50969;DHT22;36982;51.474;7.228;2024-01-30T06:39:04;7.80;95.20
50969;DHT22;36982;51.474;7.228;2024-01-30T06:41:31;7.90;94.80
50969;DHT22;36982;51.474;7.228;2024-01-30T06:43:57;7.90;95.00
50969;DHT22;36982;51.474;7.228;2024-01-30T06:46:22;7.90;95.10
50969;DHT22;36982;51.474;7.228;2024-01-30T06:48:48;7.80;94.80
50969;DHT22;36982;51.474;7.228;2024-01-30T06:51:14;8.00;94.80
50969;DHT22;36982;51.474;7.228;2024-01-30T06:53:39;7.90;92.60
50969;DHT22;36982;51.474;7.228;2024-01-30T06:56:05;7.90;94.90
50969;DHT22;36982;51.474;7.228;2024-01-30T06:58:31;8.00;95.10
50969;DHT22;36982;51.474;7.228;2024-01-30T07:00:58;8.00;94.50
50969;DHT22;36982;51.474;7.228;2024-01-30T07:03:24;8.00;94.20
50969;DHT22;36982;51.474;7.228;2024-01-30T07:05:50;8.10;93.40
50969;DHT22;36982;51.474;7.228;2024-01-30T07:08:16;8.10;94.60
50969;DHT22;36982;51.474;7.228;2024-01-30T07:10:43;8.20;93.40
50969;DHT22;36982;51.474;7.228;2024-01-30T07:13:10;8.30;92.70
50969;DHT22;36982;51.474;7.228;2024-01-30T07:15:35;8.20;92.40
50969;DHT22;36982;51.474;7.228;2024-01-30T07:18:02;8.20;94.10
50969;DHT22;36982;51.474;7.228;2024-01-30T07:20:28;8.30;93.30
50969;DHT22;36982;51.474;7.228;2024-01-30T07:22:56;8.30;91.80
50969;DHT22;36982;51.474;7.228;2024-01-30T07:25:21;8.40;91.70
50969;DHT22;36982;51.474;7.228;2024-01-30T07:27:54;8.30;92.60
50969;DHT22;36982;51.474;7.228;2024-01-30T07:30:20;8.40;92.00
50969;DHT22;36982;51.474;7.228;2024-01-30T07:32:47;8.40;91.40
50969;DHT22;36982;51.474;7.228;2024-01-30T07:35:13;8.50;90.60
50969;DHT22;36982;51.474;7.228;2024-01-30T07:37:39;8.50;92.00
50969;DHT22;36982;51.474;7.228;2024-01-30T07:40:05;8.60;90.50
50969;DHT22;36982;51.474;7.228;2024-01-30T07:42:32;8.60;85.10
50969;DHT22;36982;51.474;7.228;2024-01-30T07:44:58;8.60;88.80
50969;DHT22;36982;51.474;7.228;2024-01-30T07:47:23;8.70;87.00
50969;DHT22;36982;51.474;7.228;2024-01-30T07:49:58;8.80;86.90
50969;DHT22;36982;51.474;7.228;2024-01-30T07:52:24;8.70;82.80
50969;DHT22;36982;51.474;7.228;2024-01-30T07:54:50;8.80;84.00
50969;DHT22;36982;51.474;7.228;2024-01-30T07:57:17;8.80;87.70
50969;DHT22;36982;51.474;7.228;2024-01-30T07:59:43;8.80;83.10
50969;DHT22;36982;51.474;7.228;2024-01-30T08:02:18;8.80;85.70
50969;DHT22;36982;51.474;7.228;2024-01-30T08:04:44;8.80;87.30
50969;DHT22;36982;51.474;7.228;2024-01-30T08:07:14;8.90;85.90
50969;DHT22;36982;51.474;7.228;2024-01-30T08:09:39;9.00;84.40
50969;DHT22;36982;51.474;7.228;2024-01-30T08:12:05;9.00;84.10
50969;DHT22;36982;51.474;7.228;2024-01-30T08:14:30;9.10;85.60
50969;DHT22;36982;51.474;7.228;2024-01-30T08:17:06;9.20;79.00
50969;DHT22;36982;51.474;7.228;2024-01-30T08:19:33;9.40;75.90
50969;DHT22;36982;51.474;7.228;2024-01-30T08:21:58;9.40;73.90
50969;DHT22;36982;51.474;7.228;2024-01-30T08:24:24;9.40;75.60
50969;DHT22;36982;51.474;7.228;2024-01-30T08:26:49;9.50;75.00
50969;DHT22;36982;51.474;7.228;2024-01-30T08:29:15;9.50;75.70
50969;DHT22;36982;51.474;7.228;2024-01-30T08:31:50;9.50;75.40
50969;DHT22;36982;51.474;7.228;2024-01-30T08:34:15;9.60;76.00
50969;DHT22;36982;51.474;7.228;2024-01-30T08:36:41;9.70;74.60
50969;DHT22;36982;51.474;7.228;2024-01-30T08:39:06;9.70;74.20
50969;DHT22;36982;51.474;7.228;2024-01-30T08:41:48;9.80;75.70
50969;DHT22;36982;51.474;7.228;2024-01-30T08:44:14;10.00;72.70
50969;DHT22;36982;51.474;7.228;2024-01-30T08:46:40;10.10;69.90
50969;DHT22;36982;51.474;7.228;2024-01-30T08:49:13;10.20;67.40
50969;DHT22;36982;51.474;7.228;2024-01-30T08:51:39;10.20;64.30
50969;DHT22;36982;51.474;7.228;2024-01-30T08:54:05;10.30;63.20
50969;DHT22;36982;51.474;7.228;2024-01-30T08:56:31;10.30;59.70
50969;DHT22;36982;51.474;7.228;2024-01-30T08:58:56;10.30;57.80
50969;DHT22;36982;51.474;7.228;2024-01-30T09:01:22;10.40;58.40
50969;DHT22;36982;51.474;7.228;2024-01-30T09:03:47;10.50;56.90
50969;DHT22;36982;51.474;7.228;2024-01-30T09:06:13;10.50;55.60
50969;DHT22;36982;51.474;7.228;2024-01-30T09:08:39;10.60;52.70
50969;DHT22;36982;51.474;7.228;2024-01-30T09:11:15;10.60;50.60
50969;DHT22;36982;51.474;7.228;2024-01-30T09:13:41;10.60;51.80
50969;DHT22;36982;51.474;7.228;2024-01-30T09:16:07;10.70;49.70
50969;DHT22;36982;51.474;7.228;2024-01-30T09:18:33;10.70;51.30
50969;DHT22;36982;51.474;7.228;2024-01-30T09:20:58;10.70;52.30
50969;DHT22;36982;51.474;7.228;2024-01-30T09:23:38;10.90;47.60
50969;DHT22;36982;51.474;7.228;2024-01-30T09:26:04;10.90;48.60
50969;DHT22;36982;51.474;7.228;2024-01-30T09:28:30;11.00;45.50
50969;DHT22;36982;51.474;7.228;2024-01-30T09:30:55;11.00;43.40
50969;DHT22;36982;51.474;7.228;2024-01-30T09:33:21;11.00;43.20
50969;DHT22;36982;51.474;7.228;2024-01-30T09:35:46;11.00;43.80
50969;DHT22;36982;51.474;7.228;2024-01-30T09:38:12;11.00;43.10
50969;DHT22;36982;51.474;7.228;2024-01-30T09:40:38;11.00;43.50
50969;DHT22;36982;51.474;7.228;2024-01-30T09:43:03;11.00;45.10
50969;DHT22;36982;51.474;7.228;2024-01-30T09:45:30;10.90;44.00
50969;DHT22;36982;51.474;7.228;2024-01-30T09:47:59;10.90;41.70
50969;DHT22;36982;51.474;7.228;2024-01-30T09:50:25;11.00;42.40
50969;DHT22;36982;51.474;7.228;2024-01-30T09:52:52;11.00;40.80
50969;DHT22;36982;51.474;7.228;2024-01-30T09:55:20;11.10;39.50
50969;DHT22;36982;51.474;7.228;2024-01-30T09:57:46;11.10;39.80
50969;DHT22;36982;51.474;7.228;2024-01-30T10:00:12;11.10;35.40
50969;DHT22;36982;51.474;7.228;2024-01-30T10:02:39;11.30;32.30
50969;DHT22;36982;51.474;7.228;2024-01-30T10:05:05;11.40;31.10
50969;DHT22;36982;51.474;7.228;2024-01-30T10:07:31;11.40;24.60
50969;DHT22;36982;51.474;7.228;2024-01-30T10:09:57;11.50;23.30
50969;DHT22;36982;51.474;7.228;2024-01-30T10:12:23;11.60;21.90
50969;DHT22;36982;51.474;7.228;2024-01-30T10:14:49;11.70;18.90
50969;DHT22;36982;51.474;7.228;2024-01-30T10:17:15;11.70;18.10
50969;DHT22;36982;51.474;7.228;2024-01-30T10:19:41;11.80;16.70
50969;DHT22;36982;51.474;7.228;2024-01-30T10:22:07;11.70;15.30
50969;DHT22;36982;51.474;7.228;2024-01-30T10:24:34;11.70;15.50
50969;DHT22;36982;51.474;7.228;2024-01-30T10:27:00;11.70;14.80
50969;DHT22;36982;51.474;7.228;2024-01-30T10:29:27;11.70;15.00
50969;DHT22;36982;51.474;7.228;2024-01-30T10:32:29;11.80;12.90
50969;DHT22;36982;51.474;7.228;2024-01-30T10:34:55;11.80;11.80
50969;DHT22;36982;51.474;7.228;2024-01-30T10:37:25;11.90;9.70
50969;DHT22;36982;51.474;7.228;2024-01-30T10:39:53;11.90;8.40
50969;DHT22;36982;51.474;7.228;2024-01-30T10:42:20;11.90;7.70
50969;DHT22;36982;51.474;7.228;2024-01-30T10:44:57;11.90;5.00
50969;DHT22;36982;51.474;7.228;2024-01-30T10:50:35;12.10;3.40
50969;DHT22;36982;51.474;7.228;2024-01-30T10:53:02;12.20;1.00
50969;DHT22;36982;51.474;7.228;2024-01-30T10:55:39;12.40;1.00
50969;DHT22;36982;51.474;7.228;2024-01-30T10:58:06;12.50;1.00
50969;DHT22;36982;51.474;7.228;2024-01-30T11:00:32;12.60;1.00
50969;DHT22;36982;51.474;7.228;2024-01-30T11:02:59;12.70;1.00
50969;DHT22;36982;51.474;7.228;2024-01-30T11:05:25;12.70;1.00
50969;DHT22;36982;51.474;7.228;2024-01-30T11:07:52;12.70;1.00
50969;DHT22;36982;51.474;7.228;2024-01-30T11:10:18;12.80;1.00
50969;DHT22;36982;51.474;7.228;2024-01-30T11:12:46;12.90;1.00
50969;DHT22;36982;51.474;7.228;2024-01-30T11:15:16;13.00;1.00
50969;DHT22;36982;51.474;7.228;2024-01-30T11:20:25;13.00;1.00
50969;DHT22;36982;51.474;7.228;2024-01-30T11:22:52;13.10;1.00
50969;DHT22;36982;51.474;7.228;2024-01-30T11:25:22;13.20;1.00
50969;DHT22;36982;51.474;7.228;2024-01-30T11:27:50;13.20;1.00
50969;DHT22;36982;51.474;7.228;2024-01-30T11:33:27;13.20;1.00
50969;DHT22;36982;51.474;7.228;2024-01-30T11:35:57;13.10;1.00
50969;DHT22;36982;51.474;7.228;2024-01-30T11:38:26;13.00;1.00
50969;DHT22;36982;51.474;7.228;2024-01-30T11:40:51;13.00;1.00
50969;DHT22;36982;51.474;7.228;2024-01-30T11:43:18;13.00;1.00
50969;DHT22;36982;51.474;7.228;2024-01-30T11:45:44;12.90;1.00
50969;DHT22;36982;51.474;7.228;2024-01-30T11:48:12;12.90;1.00
50969;DHT22;36982;51.474;7.228;2024-01-30T11:50:38;12.90;1.00
50969;DHT22;36982;51.474;7.228;2024-01-30T11:53:04;12.90;1.00
50969;DHT22;36982;51.474;7.228;2024-01-30T11:55:30;12.80;1.00
50969;DHT22;36982;51.474;7.228;2024-01-30T11:58:00;12.90;1.00
50969;DHT22;36982;51.474;7.228;2024-01-30T12:00:27;12.80;1.00
50969;DHT22;36982;51.474;7.228;2024-01-30T12:02:54;12.80;1.00
50969;DHT22;36982;51.474;7.228;2024-01-30T12:05:24;12.70;1.00
50969;DHT22;36982;51.474;7.228;2024-01-30T12:07:50;12.80;1.00
50969;DHT22;36982;51.474;7.228;2024-01-30T12:10:16;12.70;2.10
50969;DHT22;36982;51.474;7.228;2024-01-30T12:12:47;12.80;1.00
50969;DHT22;36982;51.474;7.228;2024-01-30T12:15:14;12.70;1.90
50969;DHT22;36982;51.474;7.228;2024-01-30T12:17:40;12.60;5.00
50969;DHT22;36982;51.474;7.228;2024-01-30T12:20:19;12.70;5.80
50969;DHT22;36982;51.474;7.228;2024-01-30T12:22:46;12.70;6.70
50969;DHT22;36982;51.474;7.228;2024-01-30T12:25:15;12.50;10.20
50969;DHT22;36982;51.474;7.228;2024-01-30T12:27:48;12.50;14.40
50969;DHT22;36982;51.474;7.228;2024-01-30T12:30:18;12.40;14.80
50969;DHT22;36982;51.474;7.228;2024-01-30T12:32:46;12.50;17.10
50969;DHT22;36982;51.474;7.228;2024-01-30T12:35:13;12.50;21.40
50969;DHT22;36982;51.474;7.228;2024-01-30T12:37:40;12.50;22.10
50969;DHT22;36982;51.474;7.228;2024-01-30T12:40:07;12.40;23.40
50969;DHT22;36982;51.474;7.228;2024-01-30T12:42:33;12.40;25.50
50969;DHT22;36982;51.474;7.228;2024-01-30T12:44:59;12.40;26.20
50969;DHT22;36982;51.474;7.228;2024-01-30T12:47:25;12.40;26.20
50969;DHT22;36982;51.474;7.228;2024-01-30T12:49:51;12.40;27.10
50969;DHT22;36982;51.474;7.228;2024-01-30T12:52:19;12.50;28.30
50969;DHT22;36982;51.474;7.228;2024-01-30T12:54:45;12.50;27.70
50969;DHT22;36982;51.474;7.228;2024-01-30T12:57:11;12.50;29.20
50969;DHT22;36982;51.474;7.228;2024-01-30T12:59:37;12.50;29.10
50969;DHT22;36982;51.474;7.228;2024-01-30T13:02:03;12.40;31.90
50969;DHT22;36982;51.474;7.228;2024-01-30T13:04:29;12.40;32.90
50969;DHT22;36982;51.474;7.228;2024-01-30T13:06:54;12.30;33.90
50969;DHT22;36982;51.474;7.228;2024-01-30T13:09:20;12.40;34.20
50969;DHT22;36982;51.474;7.228;2024-01-30T13:11:46;12.40;35.00
50969;DHT22;36982;51.474;7.228;2024-01-30T13:14:12;12.40;35.20
50969;DHT22;36982;51.474;7.228;2024-01-30T13:16:37;12.40;36.40
50969;DHT22;36982;51.474;7.228;2024-01-30T13:19:03;12.30;39.20
50969;DHT22;36982;51.474;7.228;2024-01-30T13:21:29;12.30;38.80
50969;DHT22;36982;51.474;7.228;2024-01-30T13:23:55;12.30;41.10
50969;DHT22;36982;51.474;7.228;2024-01-30T13:26:21;12.20;44.10
50969;DHT22;36982;51.474;7.228;2024-01-30T13:28:46;12.20;46.40
50969;DHT22;36982;51.474;7.228;2024-01-30T13:31:13;12.20;46.40
50969;DHT22;36982;51.474;7.228;2024-01-30T13:33:40;12.20;46.70
50969;DHT22;36982;51.474;7.228;2024-01-30T13:36:07;12.20;42.80
50969;DHT22;36982;51.474;7.228;2024-01-30T13:38:33;12.10;45.60
50969;DHT22;36982;51.474;7.228;2024-01-30T13:40:59;12.10;49.00
50969;DHT22;36982;51.474;7.228;2024-01-30T13:43:25;12.10;50.80
50969;DHT22;36982;51.474;7.228;2024-01-30T13:45:51;12.10;51.20
50969;DHT22;36982;51.474;7.228;2024-01-30T13:48:17;12.00;54.40
50969;DHT22;36982;51.474;7.228;2024-01-30T13:50:43;12.00;55.80
50969;DHT22;36982;51.474;7.228;2024-01-30T13:53:09;12.00;56.80
50969;DHT22;36982;51.474;7.228;2024-01-30T13:55:34;12.00;56.80
50969;DHT22;36982;51.474;7.228;2024-01-30T13:58:00;12.00;59.90
50969;DHT22;36982;51.474;7.228;2024-01-30T14:00:36;12.00;57.20
50969;DHT22;36982;51.474;7.228;2024-01-30T14:03:02;12.00;58.50
50969;DHT22;36982;51.474;7.228;2024-01-30T14:05:28;12.00;61.50
50969;DHT22;36982;51.474;7.228;2024-01-30T14:07:54;11.90;62.50
50969;DHT22;36982;51.474;7.228;2024-01-30T14:10:20;11.80;65.20
50969;DHT22;36982;51.474;7.228;2024-01-30T14:12:46;11.90;63.50
50969;DHT22;36982;51.474;7.228;2024-01-30T14:15:13;11.90;64.90
50969;DHT22;36982;51.474;7.228;2024-01-30T14:17:40;11.80;66.20
50969;DHT22;36982;51.474;7.228;2024-01-30T14:20:18;11.80;66.90
50969;DHT22;36982;51.474;7.228;2024-01-30T14:22:44;11.80;65.50
50969;DHT22;36982;51.474;7.228;2024-01-30T14:25:09;11.90;66.20
50969;DHT22;36982;51.474;7.228;2024-01-30T14:27:35;11.80;68.40
50969;DHT22;36982;51.474;7.228;2024-01-30T14:30:01;11.90;67.80
50969;DHT22;36982;51.474;7.228;2024-01-30T14:32:28;11.90;66.70
50969;DHT22;36982;51.474;7.228;2024-01-30T14:34:54;11.90;65.50
50969;DHT22;36982;51.474;7.228;2024-01-30T14:37:23;11.90;66.00
50969;DHT22;36982;51.474;7.228;2024-01-30T14:39:49;11.90;65.60
50969;DHT22;36982;51.474;7.228;2024-01-30T14:42:15;12.00;63.90
50969;DHT22;36982;51.474;7.228;2024-01-30T14:44:41;12.00;64.10
50969;DHT22;36982;51.474;7.228;2024-01-30T14:47:07;12.00;63.00
50969;DHT22;36982;51.474;7.228;2024-01-30T14:49:33;12.10;60.50
50969;DHT22;36982;51.474;7.228;2024-01-30T14:51:59;12.00;62.20
50969;DHT22;36982;51.474;7.228;2024-01-30T14:54:26;12.00;62.30
50969;DHT22;36982;51.474;7.228;2024-01-30T14:56:52;11.90;63.30
50969;DHT22;36982;51.474;7.228;2024-01-30T14:59:18;11.90;62.70
50969;DHT22;36982;51.474;7.228;2024-01-30T15:01:58;11.90;62.70
50969;DHT22;36982;51.474;7.228;2024-01-30T15:04:23;11.90;63.90
50969;DHT22;36982;51.474;7.228;2024-01-30T15:06:49;11.90;59.30
50969;DHT22;36982;51.474;7.228;2024-01-30T15:09:15;11.90;59.50
50969;DHT22;36982;51.474;7.228;2024-01-30T15:11:43;11.90;60.50
50969;DHT22;36982;51.474;7.228;2024-01-30T15:14:09;11.90;60.60
50969;DHT22;36982;51.474;7.228;2024-01-30T15:16:35;11.90;59.90
50969;DHT22;36982;51.474;7.228;2024-01-30T15:19:01;11.90;59.70
50969;DHT22;36982;51.474;7.228;2024-01-30T15:21:27;11.80;56.30
50969;DHT22;36982;51.474;7.228;2024-01-30T15:23:54;11.80;55.60
50969;DHT22;36982;51.474;7.228;2024-01-30T15:26:20;11.70;52.70
50969;DHT22;36982;51.474;7.228;2024-01-30T15:28:46;11.70;49.80
50969;DHT22;36982;51.474;7.228;2024-01-30T15:31:11;11.80;47.70
50969;DHT22;36982;51.474;7.228;2024-01-30T15:33:37;11.80;49.50
50969;DHT22;36982;51.474;7.228;2024-01-30T15:36:03;11.80;48.40
50969;DHT22;36982;51.474;7.228;2024-01-30T15:38:29;11.70;43.80
50969;DHT22;36982;51.474;7.228;2024-01-30T15:40:55;11.70;41.30
50969;DHT22;36982;51.474;7.228;2024-01-30T15:43:22;11.70;40.70
50969;DHT22;36982;51.474;7.228;2024-01-30T15:45:48;11.70;32.60